sensor_id;sensor_type;location;lat;lon;timestamp;P1;durP1;ratioP1;P2;durP2;ratioP2
15082;SDS011;7640;53.116;6.878;2023-11-21T00:00:14;20.43;;;8.73;;
15082;SDS011;7640;53.116;6.878;2023-11-21T00:02:43;29.10;;;9.77;;
15082;SDS011;7640;53.116;6.878;2023-11-21T00:05:13;28.93;;;9.77;;
15082;SDS011;7640;53.116;6.878;2023-11-21T00:07:43;26.17;;;9.27;;
15082;SDS011;7640;53.116;6.878;2023-11-21T00:10:13;23.63;;;9.57;;
15082;SDS011;7640;53.116;6.878;2023-11-21T00:12:42;27.77;;;10.03;;
15082;SDS011;7640;53.116;6.878;2023-11-21T00:15:14;32.20;;;10.90;;
15082;SDS011;7640;53.116;6.878;2023-11-21T00:17:43;28.53;;;10.23;;
15082;SDS011;7640;53.116;6.878;2023-11-21T00:20:11;32.97;;;10.60;;
15082;SDS011;7640;53.116;6.878;2023-11-21T00:22:40;22.63;;;9.47;;
15082;SDS011;7640;53.116;6.878;2023-11-21T00:25:12;25.50;;;10.67;;
15082;SDS011;7640;53.116;6.878;2023-11-21T00:27:44;28.53;;;11.83;;
15082;SDS011;7640;53.116;6.878;2023-11-21T00:30:12;28.57;;;11.80;;
15082;SDS011;7640;53.116;6.878;2023-11-21T00:32:41;31.73;;;11.97;;
15082;SDS011;7640;53.116;6.878;2023-11-21T00:35:10;35.40;;;11.63;;
15082;SDS011;7640;53.116;6.878;2023-11-21T00:37:38;32.47;;;12.30;;
15082;SDS011;7640;53.116;6.878;2023-11-21T00:40:07;36.33;;;12.17;;
15082;SDS011;7640;53.116;6.878;2023-11-21T00:42:39;34.40;;;11.73;;
15082;SDS011;7640;53.116;6.878;2023-11-21T00:45:08;34.77;;;12.33;;
15082;SDS011;7640;53.116;6.878;2023-11-21T00:47:37;34.73;;;12.13;;
15082;SDS011;7640;53.116;6.878;2023-11-21T00:50:06;30.47;;;11.40;;
15082;SDS011;7640;53.116;6.878;2023-11-21T00:52:36;35.93;;;12.10;;
15082;SDS011;7640;53.116;6.878;2023-11-21T00:55:05;32.20;;;13.03;;
15082;SDS011;7640;53.116;6.878;2023-11-21T00:57:36;33.87;;;13.23;;
15082;SDS011;7640;53.116;6.878;2023-11-21T01:00:05;37.87;;;12.63;;
15082;SDS011;7640;53.116;6.878;2023-11-21T01:02:37;31.77;;;12.50;;
15082;SDS011;7640;53.116;6.878;2023-11-21T01:05:06;43.23;;;13.63;;
15082;SDS011;7640;53.116;6.878;2023-11-21T01:07:35;36.07;;;12.50;;
15082;SDS011;7640;53.116;6.878;2023-11-21T01:10:04;38.90;;;12.20;;
15082;SDS011;7640;53.116;6.878;2023-11-21T01:12:36;32.67;;;13.20;;
15082;SDS011;7640;53.116;6.878;2023-11-21T01:15:05;37.63;;;13.30;;
15082;SDS011;7640;53.116;6.878;2023-11-21T01:17:35;30.63;;;12.23;;
15082;SDS011;7640;53.116;6.878;2023-11-21T01:20:05;37.30;;;13.00;;
15082;SDS011;7640;53.116;6.878;2023-11-21T01:22:39;39.93;;;13.67;;
15082;SDS011;7640;53.116;6.878;2023-11-21T01:25:08;35.77;;;13.43;;
15082;SDS011;7640;53.116;6.878;2023-11-21T01:27:38;35.43;;;14.33;;
15082;SDS011;7640;53.116;6.878;2023-11-21T01:30:07;39.77;;;14.63;;
15082;SDS011;7640;53.116;6.878;2023-11-21T01:32:37;33.87;;;13.17;;
15082;SDS011;7640;53.116;6.878;2023-11-21T01:35:07;44.53;;;14.77;;
15082;SDS011;7640;53.116;6.878;2023-11-21T01:37:36;38.60;;;14.70;;
15082;SDS011;7640;53.116;6.878;2023-11-21T01:40:06;51.93;;;14.40;;
15082;SDS011;7640;53.116;6.878;2023-11-21T01:42:41;41.03;;;14.90;;
15082;SDS011;7640;53.116;6.878;2023-11-21T01:45:11;44.50;;;15.20;;
15082;SDS011;7640;53.116;6.878;2023-11-21T01:47:41;47.00;;;15.33;;
15082;SDS011;7640;53.116;6.878;2023-11-21T01:50:12;41.53;;;15.97;;
15082;SDS011;7640;53.116;6.878;2023-11-21T01:52:43;39.10;;;14.30;;
15082;SDS011;7640;53.116;6.878;2023-11-21T01:55:16;47.90;;;15.53;;
15082;SDS011;7640;53.116;6.878;2023-11-21T01:57:55;41.57;;;16.63;;
15082;SDS011;7640;53.116;6.878;2023-11-21T02:00:24;44.93;;;16.53;;
15082;SDS011;7640;53.116;6.878;2023-11-21T02:02:55;41.53;;;15.27;;
15082;SDS011;7640;53.116;6.878;2023-11-21T02:05:25;41.60;;;15.67;;
15082;SDS011;7640;53.116;6.878;2023-11-21T02:07:53;47.57;;;17.50;;
15082;SDS011;7640;53.116;6.878;2023-11-21T02:10:23;49.30;;;17.37;;
15082;SDS011;7640;53.116;6.878;2023-11-21T02:12:53;51.23;;;16.30;;
15082;SDS011;7640;53.116;6.878;2023-11-21T02:15:24;58.27;;;17.13;;
15082;SDS011;7640;53.116;6.878;2023-11-21T02:17:55;45.37;;;16.77;;
15082;SDS011;7640;53.116;6.878;2023-11-21T02:20:25;46.77;;;15.93;;
15082;SDS011;7640;53.116;6.878;2023-11-21T02:22:57;52.30;;;17.63;;
15082;SDS011;7640;53.116;6.878;2023-11-21T02:25:27;55.77;;;18.13;;
15082;SDS011;7640;53.116;6.878;2023-11-21T02:27:57;53.10;;;16.87;;
15082;SDS011;7640;53.116;6.878;2023-11-21T02:30:28;55.27;;;17.53;;
15082;SDS011;7640;53.116;6.878;2023-11-21T02:32:58;49.00;;;17.73;;
15082;SDS011;7640;53.116;6.878;2023-11-21T02:35:28;52.90;;;16.87;;
15082;SDS011;7640;53.116;6.878;2023-11-21T02:37:59;58.40;;;18.27;;
15082;SDS011;7640;53.116;6.878;2023-11-21T02:40:28;58.93;;;19.53;;
15082;SDS011;7640;53.116;6.878;2023-11-21T02:42:57;68.17;;;19.53;;
15082;SDS011;7640;53.116;6.878;2023-11-21T02:45:26;62.93;;;18.53;;
15082;SDS011;7640;53.116;6.878;2023-11-21T02:47:55;68.20;;;20.90;;
15082;SDS011;7640;53.116;6.878;2023-11-21T02:50:25;64.47;;;20.37;;
15082;SDS011;7640;53.116;6.878;2023-11-21T02:52:54;73.23;;;20.53;;
15082;SDS011;7640;53.116;6.878;2023-11-21T02:55:25;66.93;;;21.07;;
15082;SDS011;7640;53.116;6.878;2023-11-21T02:57:54;70.30;;;19.97;;
15082;SDS011;7640;53.116;6.878;2023-11-21T03:00:24;70.23;;;19.77;;
15082;SDS011;7640;53.116;6.878;2023-11-21T03:02:54;66.70;;;19.30;;
15082;SDS011;7640;53.116;6.878;2023-11-21T03:05:24;67.63;;;20.13;;
15082;SDS011;7640;53.116;6.878;2023-11-21T03:07:52;76.23;;;19.87;;
15082;SDS011;7640;53.116;6.878;2023-11-21T03:10:21;83.67;;;19.60;;
15082;SDS011;7640;53.116;6.878;2023-11-21T03:12:51;79.60;;;20.17;;
15082;SDS011;7640;53.116;6.878;2023-11-21T03:15:20;81.23;;;21.70;;
15082;SDS011;7640;53.116;6.878;2023-11-21T03:17:48;91.60;;;22.43;;
15082;SDS011;7640;53.116;6.878;2023-11-21T03:20:17;96.80;;;22.70;;
15082;SDS011;7640;53.116;6.878;2023-11-21T03:22:46;98.40;;;23.13;;
15082;SDS011;7640;53.116;6.878;2023-11-21T03:25:15;78.20;;;20.13;;
15082;SDS011;7640;53.116;6.878;2023-11-21T03:27:44;90.43;;;22.00;;
15082;SDS011;7640;53.116;6.878;2023-11-21T03:30:14;94.27;;;23.23;;
15082;SDS011;7640;53.116;6.878;2023-11-21T03:32:43;111.37;;;23.80;;
15082;SDS011;7640;53.116;6.878;2023-11-21T03:35:11;114.93;;;24.23;;
15082;SDS011;7640;53.116;6.878;2023-11-21T03:37:40;108.90;;;23.70;;
15082;SDS011;7640;53.116;6.878;2023-11-21T03:40:10;107.97;;;24.77;;
15082;SDS011;7640;53.116;6.878;2023-11-21T03:42:40;125.93;;;26.27;;
15082;SDS011;7640;53.116;6.878;2023-11-21T03:45:09;101.83;;;24.63;;
15082;SDS011;7640;53.116;6.878;2023-11-21T03:47:40;111.13;;;24.77;;
15082;SDS011;7640;53.116;6.878;2023-11-21T03:50:10;123.30;;;25.37;;
15082;SDS011;7640;53.116;6.878;2023-11-21T03:52:38;150.80;;;27.47;;
15082;SDS011;7640;53.116;6.878;2023-11-21T03:55:07;128.87;;;27.43;;
15082;SDS011;7640;53.116;6.878;2023-11-21T03:57:38;137.47;;;28.27;;
15082;SDS011;7640;53.116;6.878;2023-11-21T04:00:07;124.80;;;27.23;;
15082;SDS011;7640;53.116;6.878;2023-11-21T04:02:36;131.70;;;27.67;;
15082;SDS011;7640;53.116;6.878;2023-11-21T04:05:09;190.50;;;30.93;;
15082;SDS011;7640;53.116;6.878;2023-11-21T04:07:37;162.27;;;29.20;;
15082;SDS011;7640;53.116;6.878;2023-11-21T04:10:06;121.70;;;27.90;;
15082;SDS011;7640;53.116;6.878;2023-11-21T04:12:36;133.30;;;28.20;;
15082;SDS011;7640;53.116;6.878;2023-11-21T04:15:06;116.93;;;26.77;;
15082;SDS011;7640;53.116;6.878;2023-11-21T04:17:36;110.67;;;27.10;;
15082;SDS011;7640;53.116;6.878;2023-11-21T04:20:05;147.27;;;28.87;;
15082;SDS011;7640;53.116;6.878;2023-11-21T04:22:40;137.30;;;30.13;;
15082;SDS011;7640;53.116;6.878;2023-11-21T04:25:11;153.80;;;32.10;;
15082;SDS011;7640;53.116;6.878;2023-11-21T04:27:43;140.10;;;31.60;;
15082;SDS011;7640;53.116;6.878;2023-11-21T04:30:13;144.17;;;30.97;;
15082;SDS011;7640;53.116;6.878;2023-11-21T04:32:42;129.47;;;30.27;;
15082;SDS011;7640;53.116;6.878;2023-11-21T04:35:10;130.27;;;29.70;;
15082;SDS011;7640;53.116;6.878;2023-11-21T04:37:41;122.90;;;29.10;;
15082;SDS011;7640;53.116;6.878;2023-11-21T04:40:10;120.20;;;29.30;;
15082;SDS011;7640;53.116;6.878;2023-11-21T04:42:39;132.00;;;30.23;;
15082;SDS011;7640;53.116;6.878;2023-11-21T04:45:08;123.97;;;29.80;;
15082;SDS011;7640;53.116;6.878;2023-11-21T04:47:39;128.37;;;29.60;;
15082;SDS011;7640;53.116;6.878;2023-11-21T04:50:08;126.63;;;30.33;;
15082;SDS011;7640;53.116;6.878;2023-11-21T04:52:37;141.87;;;30.30;;
15082;SDS011;7640;53.116;6.878;2023-11-21T04:55:07;108.27;;;27.57;;
15082;SDS011;7640;53.116;6.878;2023-11-21T04:57:37;122.30;;;28.33;;
15082;SDS011;7640;53.116;6.878;2023-11-21T05:00:06;136.17;;;28.83;;
15082;SDS011;7640;53.116;6.878;2023-11-21T05:02:36;113.17;;;27.20;;
15082;SDS011;7640;53.116;6.878;2023-11-21T05:05:05;104.13;;;26.60;;
15082;SDS011;7640;53.116;6.878;2023-11-21T05:07:36;138.53;;;30.43;;
15082;SDS011;7640;53.116;6.878;2023-11-21T05:10:08;105.20;;;27.37;;
15082;SDS011;7640;53.116;6.878;2023-11-21T05:12:40;101.10;;;27.23;;
15082;SDS011;7640;53.116;6.878;2023-11-21T05:15:10;92.43;;;25.77;;
15082;SDS011;7640;53.116;6.878;2023-11-21T05:17:42;97.10;;;25.30;;
15082;SDS011;7640;53.116;6.878;2023-11-21T05:20:12;85.40;;;23.43;;
15082;SDS011;7640;53.116;6.878;2023-11-21T05:22:44;83.20;;;22.63;;
15082;SDS011;7640;53.116;6.878;2023-11-21T05:25:16;74.77;;;23.07;;
15082;SDS011;7640;53.116;6.878;2023-11-21T05:27:46;70.63;;;19.83;;
15082;SDS011;7640;53.116;6.878;2023-11-21T05:30:17;63.33;;;19.57;;
15082;SDS011;7640;53.116;6.878;2023-11-21T05:32:46;56.63;;;18.40;;
15082;SDS011;7640;53.116;6.878;2023-11-21T05:35:16;48.60;;;17.20;;
15082;SDS011;7640;53.116;6.878;2023-11-21T05:37:46;59.90;;;17.90;;
15082;SDS011;7640;53.116;6.878;2023-11-21T05:40:17;43.93;;;15.60;;
15082;SDS011;7640;53.116;6.878;2023-11-21T05:42:50;41.83;;;15.47;;
15082;SDS011;7640;53.116;6.878;2023-11-21T05:45:24;46.77;;;15.90;;
15082;SDS011;7640;53.116;6.878;2023-11-21T05:47:55;50.73;;;16.57;;
15082;SDS011;7640;53.116;6.878;2023-11-21T05:50:24;47.80;;;16.63;;
15082;SDS011;7640;53.116;6.878;2023-11-21T05:52:55;50.43;;;17.80;;
15082;SDS011;7640;53.116;6.878;2023-11-21T05:55:28;50.97;;;18.10;;
15082;SDS011;7640;53.116;6.878;2023-11-21T05:57:58;53.67;;;18.03;;
15082;SDS011;7640;53.116;6.878;2023-11-21T06:00:27;50.63;;;17.73;;
15082;SDS011;7640;53.116;6.878;2023-11-21T06:02:58;47.67;;;17.97;;
15082;SDS011;7640;53.116;6.878;2023-11-21T06:05:28;53.03;;;19.40;;
15082;SDS011;7640;53.116;6.878;2023-11-21T06:07:58;55.00;;;18.73;;
15082;SDS011;7640;53.116;6.878;2023-11-21T06:10:29;56.33;;;19.53;;
15082;SDS011;7640;53.116;6.878;2023-11-21T06:12:58;51.67;;;17.90;;
15082;SDS011;7640;53.116;6.878;2023-11-21T06:15:30;55.60;;;18.40;;
15082;SDS011;7640;53.116;6.878;2023-11-21T06:17:59;57.23;;;19.53;;
15082;SDS011;7640;53.116;6.878;2023-11-21T06:20:28;56.63;;;19.10;;
15082;SDS011;7640;53.116;6.878;2023-11-21T06:22:57;61.67;;;19.40;;
15082;SDS011;7640;53.116;6.878;2023-11-21T06:25:32;58.90;;;18.43;;
15082;SDS011;7640;53.116;6.878;2023-11-21T06:28:04;64.13;;;17.97;;
15082;SDS011;7640;53.116;6.878;2023-11-21T06:30:33;59.77;;;17.83;;
15082;SDS011;7640;53.116;6.878;2023-11-21T06:33:03;55.50;;;17.17;;
15082;SDS011;7640;53.116;6.878;2023-11-21T06:35:33;64.63;;;18.33;;
15082;SDS011;7640;53.116;6.878;2023-11-21T06:38:02;63.90;;;18.47;;
15082;SDS011;7640;53.116;6.878;2023-11-21T06:40:33;67.43;;;18.57;;
15082;SDS011;7640;53.116;6.878;2023-11-21T06:43:02;62.43;;;18.40;;
15082;SDS011;7640;53.116;6.878;2023-11-21T06:45:34;68.13;;;18.43;;
15082;SDS011;7640;53.116;6.878;2023-11-21T06:48:03;58.13;;;17.90;;
15082;SDS011;7640;53.116;6.878;2023-11-21T06:50:32;62.23;;;18.20;;
15082;SDS011;7640;53.116;6.878;2023-11-21T06:53:29;62.10;;;17.27;;
15082;SDS011;7640;53.116;6.878;2023-11-21T06:56:04;61.03;;;19.00;;
15082;SDS011;7640;53.116;6.878;2023-11-21T06:58:45;67.53;;;19.33;;
15082;SDS011;7640;53.116;6.878;2023-11-21T07:01:14;64.97;;;20.87;;
15082;SDS011;7640;53.116;6.878;2023-11-21T07:03:43;68.60;;;21.63;;
15082;SDS011;7640;53.116;6.878;2023-11-21T07:06:12;68.63;;;20.90;;
15082;SDS011;7640;53.116;6.878;2023-11-21T07:08:44;60.70;;;20.90;;
15082;SDS011;7640;53.116;6.878;2023-11-21T07:11:19;53.67;;;20.50;;
15082;SDS011;7640;53.116;6.878;2023-11-21T07:13:49;56.83;;;19.73;;
15082;SDS011;7640;53.116;6.878;2023-11-21T07:16:19;57.03;;;20.13;;
15082;SDS011;7640;53.116;6.878;2023-11-21T07:18:49;63.80;;;20.47;;
15082;SDS011;7640;53.116;6.878;2023-11-21T07:21:21;60.90;;;20.40;;
15082;SDS011;7640;53.116;6.878;2023-11-21T07:23:51;61.57;;;21.73;;
15082;SDS011;7640;53.116;6.878;2023-11-21T07:26:25;58.97;;;22.43;;
15082;SDS011;7640;53.116;6.878;2023-11-21T07:28:55;70.33;;;22.37;;
15082;SDS011;7640;53.116;6.878;2023-11-21T07:31:25;59.60;;;21.13;;
15082;SDS011;7640;53.116;6.878;2023-11-21T07:33:59;61.03;;;22.67;;
15082;SDS011;7640;53.116;6.878;2023-11-21T07:36:33;58.90;;;21.53;;
15082;SDS011;7640;53.116;6.878;2023-11-21T07:39:03;62.60;;;22.77;;
15082;SDS011;7640;53.116;6.878;2023-11-21T07:41:35;63.40;;;23.03;;
15082;SDS011;7640;53.116;6.878;2023-11-21T07:44:12;54.60;;;21.67;;
15082;SDS011;7640;53.116;6.878;2023-11-21T07:46:43;60.77;;;22.93;;
15082;SDS011;7640;53.116;6.878;2023-11-21T07:49:12;64.97;;;25.17;;
15082;SDS011;7640;53.116;6.878;2023-11-21T07:51:44;62.30;;;25.10;;
15082;SDS011;7640;53.116;6.878;2023-11-21T07:54:13;66.37;;;24.80;;
15082;SDS011;7640;53.116;6.878;2023-11-21T07:56:45;58.30;;;24.80;;
15082;SDS011;7640;53.116;6.878;2023-11-21T07:59:20;60.53;;;26.50;;
15082;SDS011;7640;53.116;6.878;2023-11-21T08:01:51;60.83;;;26.13;;
15082;SDS011;7640;53.116;6.878;2023-11-21T08:04:22;63.47;;;26.37;;
15082;SDS011;7640;53.116;6.878;2023-11-21T08:06:53;66.27;;;27.53;;
15082;SDS011;7640;53.116;6.878;2023-11-21T08:09:23;61.00;;;26.53;;
15082;SDS011;7640;53.116;6.878;2023-11-21T08:11:58;62.27;;;27.40;;
15082;SDS011;7640;53.116;6.878;2023-11-21T08:14:29;63.80;;;27.83;;
15082;SDS011;7640;53.116;6.878;2023-11-21T08:16:59;65.03;;;28.30;;
15082;SDS011;7640;53.116;6.878;2023-11-21T08:19:30;57.00;;;26.70;;
15082;SDS011;7640;53.116;6.878;2023-11-21T08:21:59;65.27;;;29.87;;
15082;SDS011;7640;53.116;6.878;2023-11-21T08:24:30;61.53;;;27.50;;
15082;SDS011;7640;53.116;6.878;2023-11-21T08:27:00;60.47;;;27.60;;
15082;SDS011;7640;53.116;6.878;2023-11-21T08:29:30;53.83;;;25.50;;
15082;SDS011;7640;53.116;6.878;2023-11-21T08:31:59;55.53;;;27.37;;
15082;SDS011;7640;53.116;6.878;2023-11-21T08:34:29;58.37;;;29.27;;
15082;SDS011;7640;53.116;6.878;2023-11-21T08:36:58;65.57;;;32.93;;
15082;SDS011;7640;53.116;6.878;2023-11-21T08:39:28;82.30;;;42.30;;
15082;SDS011;7640;53.116;6.878;2023-11-21T08:41:57;53.23;;;29.27;;
15082;SDS011;7640;53.116;6.878;2023-11-21T08:44:28;54.07;;;28.53;;
15082;SDS011;7640;53.116;6.878;2023-11-21T08:46:59;50.33;;;26.30;;
15082;SDS011;7640;53.116;6.878;2023-11-21T08:49:31;42.03;;;22.37;;
15082;SDS011;7640;53.116;6.878;2023-11-21T08:52:01;49.47;;;24.90;;
15082;SDS011;7640;53.116;6.878;2023-11-21T08:54:31;43.33;;;22.70;;
15082;SDS011;7640;53.116;6.878;2023-11-21T08:57:01;44.03;;;22.33;;
15082;SDS011;7640;53.116;6.878;2023-11-21T08:59:33;40.57;;;21.67;;
15082;SDS011;7640;53.116;6.878;2023-11-21T09:02:04;37.30;;;20.80;;
15082;SDS011;7640;53.116;6.878;2023-11-21T09:04:47;37.43;;;20.50;;
15082;SDS011;7640;53.116;6.878;2023-11-21T09:07:20;40.77;;;21.77;;
15082;SDS011;7640;53.116;6.878;2023-11-21T09:09:53;37.37;;;20.60;;
15082;SDS011;7640;53.116;6.878;2023-11-21T09:12:23;34.93;;;19.57;;
15082;SDS011;7640;53.116;6.878;2023-11-21T09:14:55;39.20;;;20.60;;
15082;SDS011;7640;53.116;6.878;2023-11-21T09:17:25;33.60;;;19.70;;
15082;SDS011;7640;53.116;6.878;2023-11-21T09:19:57;34.23;;;20.00;;
15082;SDS011;7640;53.116;6.878;2023-11-21T09:22:27;37.30;;;20.07;;
15082;SDS011;7640;53.116;6.878;2023-11-21T09:24:58;31.67;;;18.27;;
15082;SDS011;7640;53.116;6.878;2023-11-21T09:27:28;32.07;;;17.53;;
15082;SDS011;7640;53.116;6.878;2023-11-21T09:29:59;30.03;;;16.73;;
15082;SDS011;7640;53.116;6.878;2023-11-21T09:32:28;29.83;;;16.80;;
15082;SDS011;7640;53.116;6.878;2023-11-21T09:34:57;29.63;;;16.57;;
15082;SDS011;7640;53.116;6.878;2023-11-21T09:37:29;30.83;;;15.77;;
15082;SDS011;7640;53.116;6.878;2023-11-21T09:39:59;22.80;;;14.20;;
15082;SDS011;7640;53.116;6.878;2023-11-21T09:42:30;22.37;;;14.43;;
15082;SDS011;7640;53.116;6.878;2023-11-21T09:45:08;23.60;;;13.70;;
15082;SDS011;7640;53.116;6.878;2023-11-21T09:47:50;23.00;;;14.00;;
15082;SDS011;7640;53.116;6.878;2023-11-21T09:50:22;21.47;;;12.63;;
15082;SDS011;7640;53.116;6.878;2023-11-21T09:53:03;19.73;;;12.70;;
15082;SDS011;7640;53.116;6.878;2023-11-21T09:55:42;18.10;;;12.13;;
15082;SDS011;7640;53.116;6.878;2023-11-21T09:58:17;20.07;;;12.03;;
15082;SDS011;7640;53.116;6.878;2023-11-21T10:01:02;18.40;;;12.47;;
15082;SDS011;7640;53.116;6.878;2023-11-21T10:03:35;18.53;;;12.17;;
15082;SDS011;7640;53.116;6.878;2023-11-21T10:06:06;17.53;;;11.47;;
15082;SDS011;7640;53.116;6.878;2023-11-21T10:08:36;15.73;;;10.77;;
15082;SDS011;7640;53.116;6.878;2023-11-21T10:11:18;15.97;;;10.87;;
15082;SDS011;7640;53.116;6.878;2023-11-21T10:13:54;15.63;;;10.50;;
15082;SDS011;7640;53.116;6.878;2023-11-21T10:16:29;15.43;;;10.13;;
15082;SDS011;7640;53.116;6.878;2023-11-21T10:19:00;13.73;;;9.97;;
15082;SDS011;7640;53.116;6.878;2023-11-21T10:21:37;14.77;;;10.57;;
15082;SDS011;7640;53.116;6.878;2023-11-21T10:24:09;14.30;;;10.20;;
15082;SDS011;7640;53.116;6.878;2023-11-21T10:26:40;15.20;;;10.27;;
15082;SDS011;7640;53.116;6.878;2023-11-21T10:29:19;13.57;;;9.20;;
15082;SDS011;7640;53.116;6.878;2023-11-21T10:31:51;13.53;;;10.17;;
15082;SDS011;7640;53.116;6.878;2023-11-21T10:34:25;15.27;;;11.07;;
15082;SDS011;7640;53.116;6.878;2023-11-21T10:36:54;18.00;;;10.87;;
15082;SDS011;7640;53.116;6.878;2023-11-21T10:39:25;15.73;;;11.03;;
15082;SDS011;7640;53.116;6.878;2023-11-21T10:41:58;15.40;;;10.40;;
15082;SDS011;7640;53.116;6.878;2023-11-21T10:44:30;13.40;;;10.33;;
15082;SDS011;7640;53.116;6.878;2023-11-21T10:47:00;16.00;;;11.50;;
15082;SDS011;7640;53.116;6.878;2023-11-21T10:49:32;13.90;;;10.27;;
15082;SDS011;7640;53.116;6.878;2023-11-21T10:52:03;14.33;;;10.93;;
15082;SDS011;7640;53.116;6.878;2023-11-21T10:54:33;14.00;;;10.77;;
15082;SDS011;7640;53.116;6.878;2023-11-21T10:57:03;14.97;;;10.53;;
15082;SDS011;7640;53.116;6.878;2023-11-21T10:59:43;14.67;;;10.57;;
15082;SDS011;7640;53.116;6.878;2023-11-21T11:02:21;16.60;;;10.87;;
15082;SDS011;7640;53.116;6.878;2023-11-21T11:04:56;13.73;;;9.97;;
15082;SDS011;7640;53.116;6.878;2023-11-21T11:07:28;13.77;;;9.90;;
15082;SDS011;7640;53.116;6.878;2023-11-21T11:10:00;15.60;;;10.30;;
15082;SDS011;7640;53.116;6.878;2023-11-21T11:12:30;13.27;;;9.77;;
15082;SDS011;7640;53.116;6.878;2023-11-21T11:15:01;12.90;;;10.23;;
15082;SDS011;7640;53.116;6.878;2023-11-21T11:17:48;13.53;;;9.30;;
15082;SDS011;7640;53.116;6.878;2023-11-21T11:20:18;15.27;;;10.20;;
15082;SDS011;7640;53.116;6.878;2023-11-21T11:22:50;14.03;;;9.13;;
15082;SDS011;7640;53.116;6.878;2023-11-21T11:25:47;12.90;;;9.23;;
15082;SDS011;7640;53.116;6.878;2023-11-21T11:28:39;11.90;;;9.43;;
15082;SDS011;7640;53.116;6.878;2023-11-21T11:31:27;12.50;;;9.23;;
15082;SDS011;7640;53.116;6.878;2023-11-21T11:34:11;12.43;;;9.07;;
15082;SDS011;7640;53.116;6.878;2023-11-21T11:36:55;12.03;;;8.97;;
15082;SDS011;7640;53.116;6.878;2023-11-21T11:39:30;12.80;;;9.53;;
15082;SDS011;7640;53.116;6.878;2023-11-21T11:42:02;12.03;;;9.07;;
15082;SDS011;7640;53.116;6.878;2023-11-21T11:47:24;13.77;;;9.30;;
15082;SDS011;7640;53.116;6.878;2023-11-21T11:50:06;13.13;;;9.43;;
15082;SDS011;7640;53.116;6.878;2023-11-21T11:52:45;15.17;;;9.80;;
15082;SDS011;7640;53.116;6.878;2023-11-21T11:55:20;11.83;;;8.90;;
15082;SDS011;7640;53.116;6.878;2023-11-21T11:57:57;11.00;;;8.50;;
15082;SDS011;7640;53.116;6.878;2023-11-21T12:00:33;12.07;;;9.23;;
15082;SDS011;7640;53.116;6.878;2023-11-21T12:03:07;11.80;;;8.83;;
15082;SDS011;7640;53.116;6.878;2023-11-21T12:05:42;13.00;;;9.33;;
15082;SDS011;7640;53.116;6.878;2023-11-21T12:08:12;12.67;;;8.93;;
15082;SDS011;7640;53.116;6.878;2023-11-21T12:10:41;11.87;;;8.73;;
15082;SDS011;7640;53.116;6.878;2023-11-21T12:13:12;12.73;;;8.90;;
15082;SDS011;7640;53.116;6.878;2023-11-21T12:15:41;11.03;;;8.37;;
15082;SDS011;7640;53.116;6.878;2023-11-21T12:18:12;11.00;;;9.03;;
15082;SDS011;7640;53.116;6.878;2023-11-21T12:20:43;12.10;;;8.50;;
15082;SDS011;7640;53.116;6.878;2023-11-21T12:23:15;10.83;;;8.77;;
15082;SDS011;7640;53.116;6.878;2023-11-21T12:25:45;12.37;;;8.73;;
15082;SDS011;7640;53.116;6.878;2023-11-21T12:28:15;12.27;;;8.73;;
15082;SDS011;7640;53.116;6.878;2023-11-21T12:30:44;12.47;;;8.00;;
15082;SDS011;7640;53.116;6.878;2023-11-21T12:33:13;12.13;;;8.57;;
15082;SDS011;7640;53.116;6.878;2023-11-21T12:35:45;11.47;;;8.97;;
15082;SDS011;7640;53.116;6.878;2023-11-21T12:38:15;12.10;;;9.13;;
15082;SDS011;7640;53.116;6.878;2023-11-21T12:40:45;13.13;;;9.07;;
15082;SDS011;7640;53.116;6.878;2023-11-21T12:43:16;11.10;;;8.43;;
15082;SDS011;7640;53.116;6.878;2023-11-21T12:45:48;11.97;;;8.90;;
15082;SDS011;7640;53.116;6.878;2023-11-21T12:48:19;12.30;;;8.43;;
15082;SDS011;7640;53.116;6.878;2023-11-21T12:50:59;11.23;;;8.30;;
15082;SDS011;7640;53.116;6.878;2023-11-21T12:53:34;10.80;;;8.60;;
15082;SDS011;7640;53.116;6.878;2023-11-21T12:56:06;9.77;;;8.33;;
15082;SDS011;7640;53.116;6.878;2023-11-21T12:58:38;11.20;;;8.27;;
15082;SDS011;7640;53.116;6.878;2023-11-21T13:01:08;11.40;;;8.87;;
15082;SDS011;7640;53.116;6.878;2023-11-21T13:03:39;11.83;;;8.43;;
15082;SDS011;7640;53.116;6.878;2023-11-21T13:06:13;11.50;;;9.07;;
15082;SDS011;7640;53.116;6.878;2023-11-21T13:08:43;11.70;;;8.43;;
15082;SDS011;7640;53.116;6.878;2023-11-21T13:11:13;12.73;;;8.57;;
15082;SDS011;7640;53.116;6.878;2023-11-21T13:13:42;10.93;;;8.97;;
15082;SDS011;7640;53.116;6.878;2023-11-21T13:16:12;12.90;;;9.03;;
15082;SDS011;7640;53.116;6.878;2023-11-21T13:18:42;12.13;;;8.93;;
15082;SDS011;7640;53.116;6.878;2023-11-21T13:21:13;13.20;;;8.80;;
15082;SDS011;7640;53.116;6.878;2023-11-21T13:23:44;11.13;;;8.80;;
15082;SDS011;7640;53.116;6.878;2023-11-21T13:26:15;11.07;;;8.50;;
15082;SDS011;7640;53.116;6.878;2023-11-21T13:28:48;11.03;;;8.43;;
15082;SDS011;7640;53.116;6.878;2023-11-21T13:31:19;13.37;;;8.47;;
15082;SDS011;7640;53.116;6.878;2023-11-21T13:33:53;11.63;;;8.40;;
15082;SDS011;7640;53.116;6.878;2023-11-21T13:36:33;11.67;;;7.90;;
15082;SDS011;7640;53.116;6.878;2023-11-21T13:39:04;9.73;;;7.80;;
15082;SDS011;7640;53.116;6.878;2023-11-21T13:41:42;12.40;;;9.07;;
15082;SDS011;7640;53.116;6.878;2023-11-21T13:44:14;11.37;;;8.57;;
15082;SDS011;7640;53.116;6.878;2023-11-21T13:46:56;10.80;;;8.27;;
15082;SDS011;7640;53.116;6.878;2023-11-21T13:49:40;11.70;;;8.57;;
15082;SDS011;7640;53.116;6.878;2023-11-21T13:52:17;9.53;;;8.07;;
15082;SDS011;7640;53.116;6.878;2023-11-21T13:54:49;11.70;;;8.20;;
15082;SDS011;7640;53.116;6.878;2023-11-21T13:57:20;12.23;;;9.10;;
15082;SDS011;7640;53.116;6.878;2023-11-21T13:59:51;10.47;;;8.73;;
15082;SDS011;7640;53.116;6.878;2023-11-21T14:02:33;14.27;;;9.20;;
15082;SDS011;7640;53.116;6.878;2023-11-21T14:05:11;11.13;;;8.90;;
15082;SDS011;7640;53.116;6.878;2023-11-21T14:07:42;13.43;;;9.57;;
15082;SDS011;7640;53.116;6.878;2023-11-21T14:10:14;16.07;;;10.23;;
15082;SDS011;7640;53.116;6.878;2023-11-21T14:12:48;13.50;;;9.53;;
15082;SDS011;7640;53.116;6.878;2023-11-21T14:15:28;12.27;;;8.90;;
15082;SDS011;7640;53.116;6.878;2023-11-21T14:18:00;13.27;;;9.57;;
15082;SDS011;7640;53.116;6.878;2023-11-21T14:20:34;10.67;;;8.23;;
15082;SDS011;7640;53.116;6.878;2023-11-21T14:23:08;10.53;;;8.30;;
15082;SDS011;7640;53.116;6.878;2023-11-21T14:25:38;9.83;;;7.60;;
15082;SDS011;7640;53.116;6.878;2023-11-21T14:28:08;12.13;;;8.17;;
15082;SDS011;7640;53.116;6.878;2023-11-21T14:30:38;9.63;;;7.53;;
15082;SDS011;7640;53.116;6.878;2023-11-21T14:33:08;10.93;;;7.83;;
15082;SDS011;7640;53.116;6.878;2023-11-21T14:35:38;10.57;;;7.33;;
15082;SDS011;7640;53.116;6.878;2023-11-21T14:38:08;9.47;;;7.40;;
15082;SDS011;7640;53.116;6.878;2023-11-21T14:40:41;8.47;;;6.97;;
15082;SDS011;7640;53.116;6.878;2023-11-21T14:43:10;10.13;;;7.07;;
15082;SDS011;7640;53.116;6.878;2023-11-21T14:45:39;10.23;;;7.50;;
15082;SDS011;7640;53.116;6.878;2023-11-21T14:48:09;10.07;;;6.83;;
15082;SDS011;7640;53.116;6.878;2023-11-21T14:50:43;8.10;;;6.67;;
15082;SDS011;7640;53.116;6.878;2023-11-21T14:53:42;9.03;;;6.73;;
15082;SDS011;7640;53.116;6.878;2023-11-21T14:56:20;10.00;;;6.83;;
15082;SDS011;7640;53.116;6.878;2023-11-21T14:59:00;9.90;;;7.23;;
15082;SDS011;7640;53.116;6.878;2023-11-21T15:01:36;11.03;;;7.60;;
15082;SDS011;7640;53.116;6.878;2023-11-21T15:04:13;11.47;;;7.60;;